Time;durP1;ratioP1;P1;durP2;ratioP2;P2;SDS_P1;SDS_P2;PMS_P1;PMS_P2;Temp;Humidity;BMP_temperature;BMP_pressure;BME280_temperature;BME280_humidity;BME280_pressure;Samples;Min_cycle;Max_cycle;Signal;HPM_P1;HPM_P2
2023/08/10 00:00:32;;;;;;;3.08;1.63;;;13.30;1.00;;;;;;4968919;28;20176;-75
2023/08/10 00:02:58;;;;;;;6.20;1.55;;;13.20;99.90;;;;;;5003660;28;20117;-74
2023/08/10 00:05:24;;;;;;;5.40;1.70;;;13.20;99.90;;;;;;4985810;28;20432;-75
2023/08/10 00:07:50;;;;;;;2.88;1.45;;;13.20;1.00;;;;;;4985811;28;20042;-74
2023/08/10 00:10:16;;;;;;;5.05;1.60;;;13.20;1.00;;;;;;5002310;28;20508;-75
2023/08/10 00:12:41;;;;;;;4.38;1.40;;;13.10;1.00;;;;;;5003389;28;20061;-74
2023/08/10 00:15:07;;;;;;;2.42;1.40;;;13.00;1.00;;;;;;4985566;28;20692;-75
2023/08/10 00:17:33;;;;;;;4.45;1.60;;;12.90;1.00;;;;;;4986585;28;20053;-75
2023/08/10 00:19:59;;;;;;;4.30;1.42;;;12.80;1.00;;;;;;5001565;28;20050;-75
2023/08/10 00:22:25;;;;;;;3.30;1.17;;;12.70;1.00;;;;;;4986383;28;20045;-75
2023/08/10 00:24:51;;;;;;;5.72;1.92;;;12.60;1.00;;;;;;4979688;28;20400;-74
2023/08/10 00:27:17;;;;;;;2.90;1.42;;;12.60;1.00;;;;;;5007273;28;20137;-75
2023/08/10 00:29:43;;;;;;;3.45;1.70;;;12.50;1.00;;;;;;4980173;28;20208;-74
2023/08/10 00:32:09;;;;;;;5.45;1.52;;;12.40;1.00;;;;;;5000533;28;20088;-74
2023/08/10 00:34:35;;;;;;;4.68;1.42;;;12.30;1.00;;;;;;4985401;28;20031;-75
2023/08/10 00:37:00;;;;;;;4.72;1.67;;;12.30;1.00;;;;;;4969182;28;20045;-74
2023/08/10 00:39:26;;;;;;;3.40;1.50;;;12.20;1.00;;;;;;4985814;28;20045;-74
2023/08/10 00:41:53;;;;;;;4.78;1.42;;;12.10;1.00;;;;;;5001458;28;20046;-73
2023/08/10 00:44:19;;;;;;;4.63;1.55;;;12.10;1.00;;;;;;4994837;28;20069;-74
2023/08/10 00:46:45;;;;;;;3.17;2.03;;;12.00;1.00;;;;;;4986793;28;20070;-74
2023/08/10 00:49:11;;;;;;;3.72;1.50;;;12.00;1.00;;;;;;4989534;28;20497;-75
2023/08/10 00:51:37;;;;;;;4.00;1.70;;;12.00;1.00;;;;;;4979693;28;20053;-73
2023/08/10 00:54:05;;;;;;;5.32;1.60;;;12.00;1.00;;;;;;4972130;28;20031;-74
2023/08/10 00:56:30;;;;;;;3.53;1.80;;;11.90;1.00;;;;;;4997950;28;20111;-74
2023/08/10 00:58:56;;;;;;;3.83;1.75;;;11.90;1.00;;;;;;4986780;28;20743;-74
2023/08/10 01:01:22;;;;;;;3.58;1.50;;;11.90;1.00;;;;;;4998516;28;20441;-74
2023/08/10 01:03:48;;;;;;;4.13;1.50;;;11.90;1.00;;;;;;4967751;28;20048;-74
2023/08/10 01:06:28;;;;;;;6.75;1.70;;;12.00;1.00;;;;;;4975644;28;20053;-74
2023/08/10 01:09:11;;;;;;;3.88;1.60;;;12.00;1.00;;;;;;4984254;28;20053;-74
2023/08/10 01:11:48;;;;;;;2.83;1.42;;;12.10;1.00;;;;;;4976355;28;20586;-74
2023/08/10 01:14:25;;;;;;;5.28;1.50;;;12.20;1.00;;;;;;4983112;28;20061;-74
2023/08/10 01:16:53;;;;;;;5.72;1.63;;;12.30;1.00;;;;;;4986491;28;20046;-74
2023/08/10 01:19:41;;;;;;;3.78;1.60;;;12.40;1.00;;;;;;4998624;28;21310;-74
2023/08/10 01:22:25;;;;;;;5.40;1.75;;;12.50;1.00;;;;;;4984241;28;20062;-74
2023/08/10 01:25:09;;;;;;;3.80;1.80;;;12.50;1.00;;;;;;4988191;28;20137;-75
2023/08/10 01:27:36;;;;;;;6.57;1.83;;;12.60;1.00;;;;;;4999142;28;20074;-74
2023/08/10 01:30:04;;;;;;;5.50;1.90;;;12.60;1.00;;;;;;4999930;28;20050;-74
2023/08/10 01:32:30;;;;;;;4.03;1.92;;;12.60;1.00;;;;;;4984744;28;20046;-74
2023/08/10 01:34:57;;;;;;;5.10;1.70;;;12.70;1.00;;;;;;4984226;28;20404;-75
2023/08/10 01:37:23;;;;;;;4.45;1.50;;;12.70;1.00;;;;;;4983533;28;20034;-74
2023/08/10 01:39:50;;;;;;;3.58;1.50;;;12.70;1.00;;;;;;4988488;28;20088;-75
2023/08/10 01:42:15;;;;;;;6.20;2.85;;;12.80;1.00;;;;;;5000553;28;20064;-74
2023/08/10 01:44:41;;;;;;;4.63;1.92;;;12.80;1.00;;;;;;4966654;28;20403;-74
2023/08/10 01:47:41;;;;;;;5.43;1.65;;;12.80;1.00;;;;;;4984339;28;20034;-75
2023/08/10 01:50:08;;;;;;;3.42;1.95;;;12.80;1.00;;;;;;4959179;28;20556;-74
2023/08/10 01:52:39;;;;;;;3.83;1.90;;;12.70;1.00;;;;;;4966542;28;20802;-74
2023/08/10 01:55:07;;;;;;;4.80;1.90;;;12.70;1.00;;;;;;4983153;28;20073;-74
2023/08/10 01:57:33;;;;;;;5.50;2.10;;;12.70;1.00;;;;;;4982555;28;20045;-75
2023/08/10 01:59:59;;;;;;;3.75;1.92;;;12.60;1.00;;;;;;4983612;28;20492;-74
2023/08/10 02:02:25;;;;;;;6.00;1.77;;;12.50;1.00;;;;;;4982979;28;20057;-75
2023/08/10 02:04:51;;;;;;;7.45;1.80;;;12.60;1.00;;;;;;4991597;28;20443;-74
2023/08/10 02:07:17;;;;;;;3.38;2.00;;;12.60;1.00;;;;;;4984342;28;20042;-75
2023/08/10 02:09:42;;;;;;;6.70;1.90;;;12.50;1.00;;;;;;4986278;28;20038;-74
2023/08/10 02:12:08;;;;;;;7.82;2.33;;;12.50;1.00;;;;;;4988149;28;20423;-74
2023/08/10 02:14:34;;;;;;;5.60;1.85;;;12.40;1.00;;;;;;4989198;28;20030;-74
2023/08/10 02:16:59;;;;;;;4.32;1.92;;;12.40;1.00;;;;;;5001157;28;20074;-74
2023/08/10 02:19:27;;;;;;;3.80;1.95;;;12.40;1.00;;;;;;4982540;28;20433;-74
2023/08/10 02:21:53;;;;;;;2.83;1.70;;;12.30;1.00;;;;;;4984091;28;20050;-74
2023/08/10 02:24:19;;;;;;;3.25;1.83;;;12.30;1.00;;;;;;4984451;28;20038;-74
2023/08/10 02:26:44;;;;;;;8.38;2.20;;;12.20;1.00;;;;;;4981811;28;20643;-74
2023/08/10 02:29:10;;;;;;;4.97;2.15;;;12.10;1.00;;;;;;4983010;28;20058;-74
2023/08/10 02:31:36;;;;;;;3.90;1.98;;;12.00;1.00;;;;;;4983439;28;20081;-74
2023/08/10 02:34:03;;;;;;;3.67;2.05;;;11.90;1.00;;;;;;4971200;28;20050;-74
2023/08/10 02:36:29;;;;;;;5.00;2.63;;;11.90;1.00;;;;;;5000712;28;20062;-74
2023/08/10 02:38:54;;;;;;;4.00;1.85;;;11.90;1.00;;;;;;4967296;28;20034;-74
2023/08/10 02:41:20;;;;;;;4.13;1.90;;;11.80;1.00;;;;;;4998706;28;20497;-74
2023/08/10 02:43:46;;;;;;;7.63;2.17;;;11.70;1.00;;;;;;5000465;28;20092;-75
2023/08/10 02:46:11;;;;;;;6.32;1.95;;;11.70;15.60;;;;;;4978691;28;20038;-74
2023/08/10 02:48:37;;;;;;;7.30;2.38;;;11.70;31.70;;;;;;4983201;28;20685;-74
2023/08/10 02:51:02;;;;;;;5.45;1.98;;;11.80;56.20;;;;;;4988073;28;20050;-74
2023/08/10 02:53:28;;;;;;;6.72;2.20;;;11.80;54.30;;;;;;4988745;28;20030;-74
2023/08/10 02:55:54;;;;;;;2.92;2.10;;;11.90;63.70;;;;;;4972164;28;20042;-75
2023/08/10 02:58:20;;;;;;;5.18;2.63;;;11.90;88.30;;;;;;5002765;28;20035;-74
2023/08/10 03:00:46;;;;;;;6.10;2.20;;;11.90;86.20;;;;;;4986673;28;20042;-74
2023/08/10 03:03:12;;;;;;;2.70;1.85;;;12.00;90.80;;;;;;5003723;28;20042;-75
2023/08/10 03:05:37;;;;;;;4.75;2.30;;;12.00;75.60;;;;;;4983448;28;20034;-74
2023/08/10 03:08:03;;;;;;;6.45;2.88;;;12.00;83.50;;;;;;4995354;28;20043;-74
2023/08/10 03:10:29;;;;;;;4.68;2.50;;;12.00;85.20;;;;;;4988812;28;20505;-75
2023/08/10 03:12:54;;;;;;;6.97;2.30;;;12.00;72.30;;;;;;4975174;28;20073;-74
2023/08/10 03:15:20;;;;;;;3.30;2.30;;;12.10;62.70;;;;;;4991319;28;20038;-75
2023/08/10 03:17:46;;;;;;;6.75;2.72;;;12.10;54.20;;;;;;5011920;28;20046;-74
2023/08/10 03:20:16;;;;;;;5.00;2.40;;;12.10;58.10;;;;;;4987341;28;20053;-74
2023/08/10 03:22:43;;;;;;;6.43;2.58;;;12.20;58.90;;;;;;5002574;28;20038;-75
2023/08/10 03:25:08;;;;;;;5.22;2.30;;;12.20;51.50;;;;;;4990095;28;20050;-75
2023/08/10 03:27:35;;;;;;;5.57;1.80;;;12.20;44.70;;;;;;5000410;28;20158;-74
2023/08/10 03:30:00;;;;;;;2.92;1.77;;;12.30;41.00;;;;;;4973125;28;20522;-75
2023/08/10 03:32:26;;;;;;;7.40;2.22;;;12.30;39.80;;;;;;4996834;28;20197;-75
2023/08/10 03:34:52;;;;;;;7.63;2.60;;;12.40;35.90;;;;;;4974928;28;20073;-74
2023/08/10 03:37:18;;;;;;;7.07;1.95;;;12.40;29.70;;;;;;5000679;28;20080;-75
2023/08/10 03:39:43;;;;;;;3.15;1.77;;;12.50;27.00;;;;;;4988518;28;20111;-75
2023/08/10 03:42:09;;;;;;;3.92;1.90;;;12.50;22.70;;;;;;4973563;28;20330;-75
2023/08/10 03:44:34;;;;;;;3.80;1.98;;;12.50;18.20;;;;;;5002540;28;20803;-75
2023/08/10 03:47:00;;;;;;;3.05;1.88;;;12.60;13.90;;;;;;5002889;28;20038;-74
2023/08/10 03:49:26;;;;;;;3.97;2.08;;;12.60;11.30;;;;;;4973505;28;20034;-75
2023/08/10 03:51:51;;;;;;;5.70;2.40;;;12.60;10.50;;;;;;4974413;28;20174;-74
2023/08/10 03:54:17;;;;;;;5.88;1.88;;;12.60;11.20;;;;;;5000657;28;20181;-75
2023/08/10 03:56:43;;;;;;;3.25;1.92;;;12.70;12.10;;;;;;4988405;28;20038;-74
2023/08/10 03:59:10;;;;;;;5.15;1.77;;;12.70;9.30;;;;;;4982957;28;20493;-75
2023/08/10 04:01:36;;;;;;;3.30;1.80;;;12.70;9.90;;;;;;4984273;28;20119;-75
2023/08/10 04:04:01;;;;;;;3.95;1.95;;;12.70;7.10;;;;;;5002086;28;20090;-74
2023/08/10 04:06:27;;;;;;;3.75;2.03;;;12.70;6.80;;;;;;5002098;28;20050;-74
2023/08/10 04:08:53;;;;;;;5.40;2.20;;;12.70;5.90;;;;;;5002819;28;20045;-74
2023/08/10 04:11:19;;;;;;;3.72;2.05;;;12.70;7.10;;;;;;4984257;28;20604;-75
2023/08/10 04:13:46;;;;;;;11.50;2.40;;;12.70;5.90;;;;;;4971061;28;20094;-74
2023/08/10 04:16:12;;;;;;;5.60;2.20;;;12.70;3.90;;;;;;5002501;28;20064;-75
2023/08/10 04:18:38;;;;;;;5.35;1.98;;;12.80;2.50;;;;;;4986866;28;20039;-75
2023/08/10 04:21:04;;;;;;;3.30;1.75;;;12.70;1.60;;;;;;4985028;28;20040;-75
2023/08/10 04:23:30;;;;;;;4.40;2.00;;;12.80;2.30;;;;;;4970328;28;20042;-74
2023/08/10 04:25:56;;;;;;;4.70;2.25;;;12.80;1.30;;;;;;4982590;28;20045;-74
2023/08/10 04:28:25;;;;;;;4.32;2.20;;;12.80;1.00;;;;;;4972400;28;20516;-74
2023/08/10 04:30:51;;;;;;;6.88;2.35;;;12.80;2.40;;;;;;4985526;28;20042;-75
2023/08/10 04:33:17;;;;;;;4.15;2.15;;;12.80;4.40;;;;;;4970094;28;20035;-75
2023/08/10 04:35:42;;;;;;;2.78;1.95;;;12.80;2.50;;;;;;4991358;28;20121;-74
2023/08/10 04:38:10;;;;;;;4.80;2.20;;;12.90;2.70;;;;;;4984212;28;20116;-75
2023/08/10 04:40:35;;;;;;;3.42;1.73;;;12.90;2.10;;;;;;4982601;28;20057;-74
2023/08/10 04:43:01;;;;;;;4.45;2.17;;;12.90;2.30;;;;;;4997839;28;20043;-74
2023/08/10 04:45:27;;;;;;;6.85;2.10;;;12.90;3.30;;;;;;5000852;28;20448;-75
2023/08/10 04:47:52;;;;;;;3.67;1.90;;;13.00;3.70;;;;;;4976512;28;20127;-75
2023/08/10 04:50:18;;;;;;;4.97;1.77;;;13.00;3.70;;;;;;4997910;28;20105;-75
2023/08/10 04:52:44;;;;;;;3.42;2.10;;;13.00;2.20;;;;;;4967861;28;20035;-75
2023/08/10 04:55:11;;;;;;;6.50;2.30;;;13.10;1.00;;;;;;4992611;28;20048;-74
2023/08/10 04:57:38;;;;;;;4.07;1.88;;;13.10;1.00;;;;;;4978685;28;20035;-75
2023/08/10 05:00:13;;;;;;;4.00;1.90;;;13.20;1.00;;;;;;4981540;28;20030;-74
2023/08/10 05:02:39;;;;;;;6.88;2.05;;;13.20;1.00;;;;;;4985288;28;20122;-74
2023/08/10 05:05:06;;;;;;;3.45;1.80;;;13.30;1.00;;;;;;4969432;28;20081;-75
2023/08/10 05:07:32;;;;;;;9.10;1.90;;;13.30;1.00;;;;;;4967088;28;20456;-74
2023/08/10 05:09:59;;;;;;;4.70;2.08;;;13.40;1.00;;;;;;4983460;28;20412;-72
2023/08/10 05:12:25;;;;;;;3.35;1.70;;;13.40;1.00;;;;;;4994500;28;20038;-75
2023/08/10 05:14:51;;;;;;;4.07;1.63;;;13.50;1.00;;;;;;4983797;28;20046;-74
2023/08/10 05:17:16;;;;;;;4.35;2.15;;;13.50;1.00;;;;;;4993731;28;20070;-73
2023/08/10 05:19:42;;;;;;;7.80;2.15;;;13.60;1.00;;;;;;4963696;28;21098;-74
2023/08/10 05:22:08;;;;;;;4.20;1.88;;;13.70;1.00;;;;;;4997541;28;20088;-74
2023/08/10 05:24:33;;;;;;;4.35;1.98;;;13.70;1.00;;;;;;4960602;28;20045;-74
2023/08/10 05:27:00;;;;;;;7.65;1.90;;;13.80;1.00;;;;;;4984776;28;20119;-74
2023/08/10 05:29:26;;;;;;;3.58;2.15;;;13.80;1.00;;;;;;4976813;28;20055;-75
2023/08/10 05:31:52;;;;;;;4.55;2.17;;;13.90;1.00;;;;;;4974521;28;20086;-75
2023/08/10 05:34:18;;;;;;;3.65;1.73;;;14.00;1.00;;;;;;4987222;28;20045;-75
2023/08/10 05:36:43;;;;;;;3.45;1.85;;;14.10;1.00;;;;;;4978888;28;20096;-75
2023/08/10 05:39:09;;;;;;;4.32;2.22;;;14.10;1.00;;;;;;4977571;28;20054;-75
2023/08/10 05:41:35;;;;;;;3.40;1.75;;;14.20;1.00;;;;;;4975765;28;20041;-75
2023/08/10 05:44:00;;;;;;;5.03;2.08;;;14.30;1.00;;;;;;4978199;28;20108;-74
2023/08/10 05:46:26;;;;;;;2.35;1.85;;;14.40;1.00;;;;;;4982897;28;20078;-74
2023/08/10 05:48:52;;;;;;;3.10;1.98;;;14.50;1.00;;;;;;4984166;28;20041;-74
2023/08/10 05:51:17;;;;;;;2.78;1.65;;;14.70;1.00;;;;;;4983832;28;20065;-75
2023/08/10 05:53:43;;;;;;;3.08;1.98;;;14.80;1.00;;;;;;4982401;28;20124;-74
2023/08/10 05:56:10;;;;;;;2.70;1.70;;;14.80;1.00;;;;;;4983746;28;20416;-74
2023/08/10 05:58:35;;;;;;;4.72;1.77;;;14.80;1.00;;;;;;4967048;28;20052;-74
2023/08/10 06:01:01;;;;;;;2.42;1.60;;;14.80;1.00;;;;;;4999790;28;20149;-74
2023/08/10 06:03:27;;;;;;;5.28;1.90;;;14.80;1.00;;;;;;4998926;28;20042;-74
2023/08/10 06:05:54;;;;;;;2.80;1.70;;;14.80;1.00;;;;;;4993387;28;20101;-74
2023/08/10 06:08:19;;;;;;;1.98;1.42;;;14.80;1.00;;;;;;4980102;28;20049;-74
2023/08/10 06:10:49;;;;;;;4.32;1.67;;;14.90;1.00;;;;;;4979624;28;20046;-74
2023/08/10 06:13:15;;;;;;;4.45;2.00;;;14.90;1.00;;;;;;4983309;28;20077;-74
2023/08/10 06:15:40;;;;;;;3.83;1.67;;;14.90;1.00;;;;;;4980685;28;20412;-74
2023/08/10 06:18:06;;;;;;;5.55;2.08;;;14.90;1.00;;;;;;4987363;28;20046;-74
2023/08/10 06:20:33;;;;;;;7.07;1.98;;;14.90;1.00;;;;;;4999987;28;20046;-74
2023/08/10 06:22:59;;;;;;;7.25;1.80;;;15.00;1.00;;;;;;4983664;28;20060;-74
2023/08/10 06:25:25;;;;;;;3.08;1.30;;;15.00;1.00;;;;;;4984069;28;20492;-73
2023/08/10 06:27:51;;;;;;;3.28;1.60;;;15.00;1.00;;;;;;4968790;28;20116;-74
2023/08/10 06:30:17;;;;;;;2.63;1.63;;;14.90;1.00;;;;;;4991036;28;20480;-74
2023/08/10 06:32:43;;;;;;;3.50;1.23;;;14.90;1.00;;;;;;4967543;28;20472;-74
2023/08/10 06:35:09;;;;;;;4.20;1.48;;;14.90;1.00;;;;;;4967780;28;20045;-74
2023/08/10 06:37:36;;;;;;;4.28;1.50;;;15.10;1.00;;;;;;4977913;28;20453;-74
2023/08/10 06:40:08;;;;;;;2.72;1.65;;;15.20;1.00;;;;;;4978288;28;20440;-74
2023/08/10 06:42:34;;;;;;;2.90;1.30;;;15.40;1.00;;;;;;4974170;28;20460;-75
2023/08/10 06:45:00;;;;;;;6.50;1.60;;;15.60;1.00;;;;;;4983571;28;20061;-74
2023/08/10 06:47:25;;;;;;;5.35;2.08;;;15.80;1.00;;;;;;4978956;28;20074;-74
2023/08/10 06:49:51;;;;;;;5.07;1.00;;;15.90;1.00;;;;;;4981000;28;20060;-74
2023/08/10 06:52:17;;;;;;;3.95;1.63;;;16.00;1.00;;;;;;4990745;28;20436;-74
2023/08/10 06:54:42;;;;;;;2.97;1.30;;;16.10;1.00;;;;;;4982711;28;20096;-74
2023/08/10 06:57:08;;;;;;;1.65;1.02;;;16.20;1.00;;;;;;4998137;28;20378;-74
2023/08/10 06:59:34;;;;;;;3.00;0.98;;;16.10;99.90;;;;;;4981668;28;20646;-75
2023/08/10 07:01:59;;;;;;;1.75;0.98;;;16.10;99.90;;;;;;4983331;28;20117;-75
2023/08/10 07:04:25;;;;;;;3.40;0.93;;;16.00;99.90;;;;;;4995963;28;20121;-76
2023/08/10 07:06:52;;;;;;;4.75;1.20;;;16.10;99.90;;;;;;4991382;28;20038;-76
2023/08/10 07:09:18;;;;;;;3.08;1.20;;;16.10;99.90;;;;;;4976603;28;20043;-76
2023/08/10 07:11:44;;;;;;;2.10;0.80;;;16.10;99.90;;;;;;4961049;28;20041;-75
2023/08/10 07:14:10;;;;;;;2.95;0.60;;;16.20;99.90;;;;;;4978917;28;20076;-76
2023/08/10 07:16:35;;;;;;;2.03;0.80;;;16.20;99.90;;;;;;4975173;28;20044;-76
2023/08/10 07:19:01;;;;;;;4.13;0.82;;;16.30;99.90;;;;;;4995149;28;20042;-76
2023/08/10 07:21:27;;;;;;;2.38;0.63;;;16.40;10.30;;;;;;4995736;28;20038;-76
2023/08/10 07:23:53;;;;;;;3.17;0.52;;;16.50;1.00;;;;;;4978645;28;20117;-76
2023/08/10 07:26:19;;;;;;;2.53;0.60;;;16.50;1.00;;;;;;4989172;28;20126;-76
2023/08/10 07:28:45;;;;;;;3.17;1.08;;;16.60;99.90;;;;;;4979874;28;20137;-76
2023/08/10 07:31:11;;;;;;;2.78;1.00;;;16.70;99.90;;;;;;4999639;28;20100;-76
2023/08/10 07:33:37;;;;;;;1.67;0.70;;;16.90;1.00;;;;;;4982831;28;20093;-76
2023/08/10 07:36:03;;;;;;;4.90;1.17;;;17.10;1.00;;;;;;4984906;28;20607;-76
2023/08/10 07:38:29;;;;;;;2.78;0.88;;;17.20;99.90;;;;;;5002981;28;20050;-76
2023/08/10 07:40:55;;;;;;;3.05;0.80;;;17.30;99.90;;;;;;4986749;28;20038;-77
2023/08/10 07:43:20;;;;;;;2.55;0.93;;;17.50;99.90;;;;;;5002469;28;20112;-76
2023/08/10 07:45:46;;;;;;;4.60;0.80;;;17.80;99.90;;;;;;5003049;28;20039;-76
2023/08/10 07:48:12;;;;;;;2.88;0.60;;;18.20;99.90;;;;;;4984524;28;20047;-77
2023/08/10 07:50:37;;;;;;;3.22;1.00;;;18.70;99.90;;;;;;4976514;28;20448;-76
2023/08/10 07:53:03;;;;;;;3.85;0.70;;;19.00;95.90;;;;;;4986264;28;20126;-76
2023/08/10 07:55:29;;;;;;;1.95;0.90;;;19.30;95.50;;;;;;4986503;28;20045;-76
2023/08/10 07:57:55;;;;;;;0.95;0.40;;;19.60;29.30;;;;;;5000170;28;20046;-76
2023/08/10 08:00:21;;;;;;;1.33;0.50;;;19.60;1.00;;;;;;4976175;28;20461;-76
2023/08/10 08:02:49;;;;;;;1.52;0.55;;;19.70;1.00;;;;;;4984541;28;20125;-76
2023/08/10 08:05:16;;;;;;;2.50;0.70;;;19.60;1.00;;;;;;5002281;28;20042;-76
2023/08/10 08:07:42;;;;;;;2.42;0.50;;;19.60;1.00;;;;;;5002249;28;20386;-76
2023/08/10 08:10:08;;;;;;;4.45;0.60;;;19.50;1.00;;;;;;4986301;28;20554;-76
2023/08/10 08:12:34;;;;;;;4.97;1.02;;;19.60;1.00;;;;;;5002436;28;20036;-76
2023/08/10 08:15:03;;;;;;;0.57;0.30;;;19.60;1.00;;;;;;4985990;28;20030;-76
2023/08/10 08:18:08;;;;;;;2.35;0.40;;;19.70;1.00;;;;;;4986163;28;20416;-76
2023/08/10 08:20:34;;;;;;;1.20;0.50;;;19.90;1.00;;;;;;5002573;28;20053;-77
2023/08/10 08:23:00;;;;;;;2.03;0.63;;;20.10;1.00;;;;;;4985867;28;20081;-76
2023/08/10 08:25:25;;;;;;;1.73;0.60;;;20.40;1.00;;;;;;5002120;28;20081;-76
2023/08/10 08:27:51;;;;;;;4.45;0.57;;;20.60;1.00;;;;;;5001911;28;20058;-77
2023/08/10 08:30:16;;;;;;;4.15;0.70;;;20.60;1.00;;;;;;5000694;28;20081;-76
2023/08/10 08:32:42;;;;;;;1.25;0.45;;;20.50;1.00;;;;;;5002082;28;20050;-76
2023/08/10 08:35:08;;;;;;;1.95;0.60;;;20.30;1.00;;;;;;5001148;28;20031;-76
2023/08/10 08:37:33;;;;;;;2.00;0.50;;;20.30;1.00;;;;;;4985072;28;20629;-75
2023/08/10 08:39:59;;;;;;;2.15;0.82;;;20.30;1.00;;;;;;5001579;28;20112;-76
2023/08/10 08:42:27;;;;;;;1.67;0.40;;;20.30;1.00;;;;;;4969336;28;20599;-75
2023/08/10 08:44:54;;;;;;;2.80;0.88;;;20.40;1.00;;;;;;4985211;28;20727;-75
2023/08/10 08:47:19;;;;;;;1.67;0.52;;;20.60;1.00;;;;;;5001635;28;20133;-75
2023/08/10 08:49:45;;;;;;;2.95;0.57;;;20.50;1.00;;;;;;5001279;28;20811;-75
2023/08/10 08:52:11;;;;;;;2.00;0.70;;;20.40;1.00;;;;;;4984188;28;20061;-75
2023/08/10 08:54:37;;;;;;;1.90;0.60;;;20.40;1.00;;;;;;5000990;28;20043;-75
2023/08/10 08:57:02;;;;;;;0.80;0.60;;;20.40;1.00;;;;;;4985268;28;20521;-75
2023/08/10 08:59:28;;;;;;;3.25;0.93;;;20.50;1.00;;;;;;4982541;28;20047;-75
2023/08/10 09:01:55;;;;;;;0.70;0.40;;;20.60;1.00;;;;;;5001515;28;20034;-75
2023/08/10 09:04:20;;;;;;;0.73;0.50;;;20.60;1.00;;;;;;5002025;28;20595;-76
2023/08/10 09:06:46;;;;;;;2.13;0.60;;;20.70;1.00;;;;;;4969143;28;20046;-76
2023/08/10 09:09:12;;;;;;;3.85;0.70;;;20.80;1.00;;;;;;5001100;28;20052;-76
2023/08/10 09:11:38;;;;;;;3.42;0.50;;;20.90;1.00;;;;;;5001476;28;20026;-76
2023/08/10 09:14:06;;;;;;;5.05;0.77;;;20.90;1.00;;;;;;5001769;28;20053;-76
2023/08/10 09:16:32;;;;;;;2.88;0.65;;;20.80;1.00;;;;;;4969325;28;20038;-76
2023/08/10 09:18:58;;;;;;;3.88;0.70;;;20.80;1.00;;;;;;5001537;28;20046;-76
2023/08/10 09:21:23;;;;;;;1.45;0.85;;;20.60;1.00;;;;;;4973259;28;20088;-76
2023/08/10 09:23:56;;;;;;;2.78;0.77;;;20.60;1.00;;;;;;5000797;28;20038;-76
2023/08/10 09:26:23;;;;;;;2.92;1.00;;;20.60;1.00;;;;;;4964619;28;20051;-77
2023/08/10 09:28:50;;;;;;;2.53;0.55;;;20.40;1.00;;;;;;4978520;28;20458;-76
2023/08/10 09:31:27;;;;;;;3.22;0.73;;;20.30;1.00;;;;;;5000630;28;20129;-76
2023/08/10 09:33:59;;;;;;;2.20;0.52;;;20.40;1.00;;;;;;4985040;28;20137;-76
2023/08/10 09:36:26;;;;;;;2.78;1.23;;;20.40;1.00;;;;;;4973298;28;20178;-76
2023/08/10 09:38:53;;;;;;;4.95;0.90;;;20.30;1.00;;;;;;5001242;28;20050;-76
2023/08/10 09:41:20;;;;;;;3.10;1.20;;;20.10;1.00;;;;;;4985475;28;20107;-76
2023/08/10 09:43:47;;;;;;;3.65;1.00;;;20.20;1.00;;;;;;4984731;28;20039;-76
2023/08/10 09:46:17;;;;;;;2.33;0.70;;;20.30;1.00;;;;;;4985176;28;20034;-77
2023/08/10 09:48:50;;;;;;;2.00;0.65;;;20.30;1.00;;;;;;4983452;28;20057;-76
2023/08/10 09:51:16;;;;;;;1.70;0.45;;;20.20;1.00;;;;;;5001318;28;20046;-76
2023/08/10 09:53:42;;;;;;;1.88;0.60;;;20.20;1.00;;;;;;4998944;28;20042;-76
2023/08/10 09:56:08;;;;;;;4.38;0.70;;;20.20;1.00;;;;;;4983153;28;20038;-76
2023/08/10 09:58:39;;;;;;;3.40;0.60;;;20.30;1.00;;;;;;4999919;28;20046;-76
2023/08/10 10:01:06;;;;;;;3.92;0.60;;;20.50;1.00;;;;;;5001835;28;20394;-76
2023/08/10 10:03:33;;;;;;;1.52;0.52;;;20.50;1.00;;;;;;4984561;28;20038;-76
2023/08/10 10:06:00;;;;;;;1.52;0.70;;;20.60;1.00;;;;;;4985243;28;20126;-76
2023/08/10 10:08:26;;;;;;;0.90;0.60;;;20.60;1.00;;;;;;4963224;28;20043;-76
2023/08/10 10:10:57;;;;;;;2.80;0.80;;;20.60;1.00;;;;;;4984265;28;20125;-76
2023/08/10 10:13:23;;;;;;;2.22;1.15;;;20.60;1.00;;;;;;4984491;28;20476;-77
2023/08/10 10:15:50;;;;;;;1.75;0.63;;;20.60;1.00;;;;;;4980837;28;20035;-76
2023/08/10 10:18:17;;;;;;;1.38;0.60;;;20.60;1.00;;;;;;4983591;28;20057;-77
2023/08/10 10:20:44;;;;;;;4.47;0.75;;;20.70;1.00;;;;;;4972429;28;20081;-77
2023/08/10 10:23:15;;;;;;;1.33;0.60;;;20.70;1.00;;;;;;4983779;28;20077;-76
2023/08/10 10:25:55;;;;;;;2.05;0.60;;;20.80;1.00;;;;;;4984008;28;20148;-76
2023/08/10 10:28:21;;;;;;;3.22;0.57;;;20.70;1.00;;;;;;4983897;28;20065;-76
2023/08/10 10:31:05;;;;;;;1.58;0.60;;;20.50;1.00;;;;;;5001232;28;20417;-76
2023/08/10 10:33:32;;;;;;;1.10;0.43;;;20.50;1.00;;;;;;4980772;28;20038;-77
2023/08/10 10:36:13;;;;;;;2.67;0.65;;;20.60;1.00;;;;;;5000146;28;20042;-76
2023/08/10 10:38:46;;;;;;;2.50;0.47;;;20.50;1.00;;;;;;4983573;28;20694;-76
2023/08/10 10:41:29;;;;;;;4.38;1.25;;;20.30;1.00;;;;;;4984033;28;20049;-77
2023/08/10 10:43:57;;;;;;;1.65;0.50;;;20.20;1.00;;;;;;4978455;28;20081;-76
2023/08/10 10:46:36;;;;;;;1.60;0.60;;;20.20;1.00;;;;;;5000721;28;20066;-76
2023/08/10 10:49:07;;;;;;;2.63;0.80;;;20.40;1.00;;;;;;4984058;28;20042;-76
2023/08/10 10:52:02;;;;;;;2.40;0.50;;;20.60;1.00;;;;;;4978028;28;20046;-77
2023/08/10 10:54:33;;;;;;;6.38;0.88;;;20.70;1.00;;;;;;4977952;28;20050;-76
2023/08/10 10:57:00;;;;;;;5.03;0.68;;;20.70;1.00;;;;;;4968102;28;20034;-76
2023/08/10 10:59:26;;;;;;;1.13;0.60;;;20.50;1.00;;;;;;5000438;28;20659;-76
2023/08/10 11:01:52;;;;;;;2.03;0.50;;;20.40;1.00;;;;;;4984111;28;20579;-76
2023/08/10 11:04:22;;;;;;;3.83;0.60;;;20.30;1.00;;;;;;5000417;28;20069;-76
2023/08/10 11:06:48;;;;;;;1.80;0.50;;;20.20;1.00;;;;;;4974650;28;20043;-77
2023/08/10 11:09:14;;;;;;;3.90;0.80;;;20.20;1.00;;;;;;4983414;28;20431;-77
2023/08/10 11:11:40;;;;;;;0.70;0.60;;;20.20;1.00;;;;;;4986674;28;20110;-76
2023/08/10 11:14:05;;;;;;;1.27;0.60;;;20.20;1.00;;;;;;4985154;28;20042;-76
2023/08/10 11:16:39;;;;;;;3.53;1.00;;;20.30;1.00;;;;;;5002131;28;20082;-77
2023/08/10 11:19:09;;;;;;;1.58;0.80;;;20.40;1.00;;;;;;5003706;28;20038;-76
2023/08/10 11:21:38;;;;;;;4.88;1.23;;;20.30;1.00;;;;;;5003797;28;20042;-76
2023/08/10 11:24:06;;;;;;;2.25;0.82;;;20.30;1.00;;;;;;4987812;28;20125;-77
2023/08/10 11:26:33;;;;;;;4.85;0.80;;;20.40;1.00;;;;;;5004180;28;20053;-76
2023/08/10 11:28:59;;;;;;;3.92;1.10;;;20.60;1.00;;;;;;4986759;28;20054;-76
2023/08/10 11:31:25;;;;;;;2.33;0.75;;;20.80;1.00;;;;;;4971228;28;20042;-76
2023/08/10 11:33:50;;;;;;;2.40;0.95;;;21.00;1.00;;;;;;5002387;28;20110;-77
2023/08/10 11:36:16;;;;;;;1.83;0.80;;;21.20;1.00;;;;;;5004022;28;20051;-76
2023/08/10 11:38:46;;;;;;;4.03;0.95;;;21.40;1.00;;;;;;5002849;28;20099;-77
2023/08/10 11:41:12;;;;;;;2.65;1.00;;;21.70;1.00;;;;;;4959536;28;20048;-77
2023/08/10 11:43:38;;;;;;;4.00;0.90;;;21.80;1.00;;;;;;5003035;28;20117;-76
2023/08/10 11:46:03;;;;;;;3.58;0.80;;;21.80;1.00;;;;;;5002209;28;20485;-76
2023/08/10 11:48:30;;;;;;;3.67;0.90;;;21.60;1.00;;;;;;4999435;28;20451;-77
2023/08/10 11:51:00;;;;;;;3.13;0.98;;;21.70;1.00;;;;;;4971244;28;20611;-76
2023/08/10 11:53:36;;;;;;;2.13;0.80;;;21.80;1.00;;;;;;5002084;28;20050;-77
2023/08/10 11:56:04;;;;;;;2.20;0.77;;;21.50;1.00;;;;;;4986835;28;20547;-76
2023/08/10 11:58:32;;;;;;;3.95;1.10;;;21.40;1.00;;;;;;5003140;28;20056;-77
2023/08/10 12:01:02;;;;;;;2.53;0.93;;;21.40;1.00;;;;;;5003356;28;20050;-78
2023/08/10 12:03:29;;;;;;;2.67;1.33;;;21.40;1.00;;;;;;4981834;28;20042;-75
2023/08/10 12:05:56;;;;;;;3.17;1.27;;;21.20;1.00;;;;;;4966119;28;20048;-76
2023/08/10 12:08:27;;;;;;;1.83;0.82;;;21.00;1.00;;;;;;4970226;28;20080;-76
2023/08/10 12:11:11;;;;;;;1.98;0.90;;;21.00;1.00;;;;;;4983727;28;20049;-77
2023/08/10 12:13:46;;;;;;;3.15;1.17;;;21.00;1.00;;;;;;4976177;28;20451;-77
2023/08/10 12:16:13;;;;;;;5.38;1.20;;;21.00;1.00;;;;;;4973727;28;20125;-76
2023/08/10 12:18:39;;;;;;;1.83;1.20;;;21.00;1.00;;;;;;4986704;28;20043;-76
2023/08/10 12:21:04;;;;;;;2.88;1.17;;;21.00;1.00;;;;;;4986139;28;20405;-76
2023/08/10 12:23:31;;;;;;;4.20;1.30;;;21.10;1.00;;;;;;5002469;28;20649;-76
2023/08/10 12:25:57;;;;;;;3.35;1.40;;;21.10;1.00;;;;;;5001548;28;20050;-76
2023/08/10 12:28:22;;;;;;;2.22;1.02;;;21.30;1.00;;;;;;4970183;28;20057;-77
2023/08/10 12:30:49;;;;;;;3.17;1.52;;;21.50;1.00;;;;;;5002155;28;20486;-77
2023/08/10 12:33:16;;;;;;;2.33;1.60;;;21.70;1.00;;;;;;5002766;28;20038;-76
2023/08/10 12:35:42;;;;;;;2.33;1.20;;;21.80;1.00;;;;;;5002495;28;20840;-76
2023/08/10 12:38:09;;;;;;;3.58;1.40;;;22.00;1.00;;;;;;5002549;28;20584;-77
2023/08/10 12:40:36;;;;;;;2.97;1.20;;;22.10;1.00;;;;;;5002165;28;20588;-77
2023/08/10 12:43:03;;;;;;;7.03;1.23;;;22.10;1.00;;;;;;4986005;28;20053;-77
2023/08/10 12:45:29;;;;;;;4.35;1.33;;;22.10;1.00;;;;;;4985392;28;20069;-77
2023/08/10 12:47:55;;;;;;;2.33;1.40;;;22.10;1.00;;;;;;4985883;28;20540;-76
2023/08/10 12:50:22;;;;;;;5.65;1.30;;;22.20;1.00;;;;;;5001136;28;20042;-77
2023/08/10 12:52:48;;;;;;;2.65;1.00;;;22.50;1.00;;;;;;5001390;28;20345;-77
2023/08/10 12:55:15;;;;;;;3.38;1.20;;;22.70;1.00;;;;;;4985645;28;20046;-77